»·PEaware :: XF32 L52-L88

XF32 :: L52-L88

FLIGHT INFORMATION

Flight Status: Arrived
Operator: Unknown
More flights by this operator :: More flights under this callsign
Pilot: Nasser A. (34038)
Aircraft: CESSNA 172 SKYHAWK
(C172)
More flights by this aircraft type
Origin: L52 Oceano Co
United States
Destination: L88 New Cuyama
United States
More flights between these airports :: More routes between these airports
Route: GPS
File this flight plan on PilotEdge
Remarks:
Altitude:
(Current/Filed)
6,500ft
Speed:
(Current/Filed)
100kts
Departed: 12-Nov-21 08:28 PM
Arrived: 12-Nov-21 09:11 PM
Distance/Time
Traveled:
47nm/0:43
Distance/Time
To Go:
Arrived

Flight Plot

Page will automatically refresh every two minutes.


Map Options




Map Legend


Flown Route
Filed Route
Departure Airport
Arrival Airport
Navaid (VOR, NDB)
Fix

Horizontal Profiles

Position Reports

Time Latitude Longitude Heading Altitude Ground
Speed
12-Nov-21 20:17 35.103453 -120.624778 23 18ft 0kts
12-Nov-21 20:18 35.103453 -120.624778 23 18ft 0kts
12-Nov-21 20:19 35.103453 -120.624778 23 18ft 0kts
12-Nov-21 20:20 35.103453 -120.624778 23 17ft 0kts
12-Nov-21 20:21 35.103453 -120.624778 23 17ft 0kts
12-Nov-21 20:22 35.103453 -120.624778 23 17ft 0kts
12-Nov-21 20:23 35.103453 -120.624778 23 17ft 0kts
12-Nov-21 20:24 35.103453 -120.624778 23 17ft 0kts
12-Nov-21 20:25 35.103453 -120.624778 23 17ft 0kts
12-Nov-21 20:26 35.103406 -120.625388 207 18ft 0kts
12-Nov-21 20:27 35.097606 -120.614793 123 131ft 91kts
12-Nov-21 20:29 35.103453 -120.624778 23 18ft 0kts
12-Nov-21 20:30 35.103453 -120.624778 23 18ft 0kts
12-Nov-21 20:31 35.103453 -120.624778 23 17ft 0kts
12-Nov-21 20:32 35.103453 -120.624778 23 17ft 0kts
12-Nov-21 20:33 35.103360 -120.624511 161 18ft 9kts
12-Nov-21 20:34 35.103499 -120.625265 246 17ft 0kts
12-Nov-21 20:35 35.096835 -120.613169 123 213ft 83kts
12-Nov-21 20:36 35.084058 -120.623180 295 853ft 96kts
12-Nov-21 20:37 35.103475 -120.621652 93 1605ft 89kts
12-Nov-21 20:38 35.094356 -120.586904 88 1865ft 107kts
12-Nov-21 20:39 35.091976 -120.555145 102 2566ft 90kts
12-Nov-21 20:40 35.084098 -120.525569 97 3184ft 90kts
12-Nov-21 20:41 35.079654 -120.496314 96 3808ft 85kts
12-Nov-21 20:42 35.075673 -120.469059 96 4458ft 78kts
12-Nov-21 20:43 35.072352 -120.444978 95 4978ft 64kts
12-Nov-21 20:44 35.067754 -120.424716 102 5416ft 60kts
12-Nov-21 20:45 35.061325 -120.397619 103 5595ft 98kts
12-Nov-21 20:46 35.057018 -120.363005 100 5848ft 107kts
12-Nov-21 20:47 35.050784 -120.327154 100 6140ft 104kts
12-Nov-21 20:48 35.045372 -120.295225 100 6632ft 88kts
12-Nov-21 20:49 35.040709 -120.268623 99 7055ft 68kts
12-Nov-21 20:50 35.036718 -120.246095 97 7145ft 76kts
12-Nov-21 20:51 35.032722 -120.217715 98 7297ft 92kts
12-Nov-21 20:52 35.028225 -120.184028 98 7325ft 107kts
12-Nov-21 20:53 35.022021 -120.147775 106 7374ft 110kts
12-Nov-21 20:54 35.014508 -120.111444 101 7390ft 111kts
12-Nov-21 20:55 35.007652 -120.074073 101 7329ft 115kts
12-Nov-21 20:56 35.001215 -120.036596 100 7286ft 110kts
12-Nov-21 20:57 34.995205 -120.000325 100 7282ft 107kts
12-Nov-21 20:58 34.988972 -119.964261 101 7299ft 109kts
12-Nov-21 20:59 34.982354 -119.928083 103 7300ft 107kts
12-Nov-21 21:00 34.977169 -119.903524 102 7023ft 61kts
12-Nov-21 21:01 34.972610 -119.880891 82 6851ft 92kts
12-Nov-21 21:02 34.968532 -119.851095 104 6770ft 86kts
12-Nov-21 21:03 34.961227 -119.817052 104 5969ft 105kts
12-Nov-21 21:04 34.953670 -119.781880 104 5275ft 109kts
12-Nov-21 21:05 34.945767 -119.745895 104 4574ft 110kts
12-Nov-21 21:06 34.930743 -119.713823 118 3974ft 111kts
12-Nov-21 21:07 34.937496 -119.712480 277 2924ft 121kts
12-Nov-21 21:08 34.948690 -119.718785 102 2631ft 98kts
12-Nov-21 21:09 34.940277 -119.686301 113 2189ft 76kts
12-Nov-21 21:10 34.939297 -119.683991 296 2190ft 31kts
12-Nov-21 21:11 34.942725 -119.691371 33 2149ft 0kts
12-Nov-21 21:12 34.942817 -119.690798 83 2151ft 0kts
12-Nov-21 21:13 34.942817 -119.690798 83 2151ft 0kts
12-Nov-21 21:14 34.942817 -119.690798 83 2151ft 0kts
12-Nov-21 21:15 34.942817 -119.690798 83 2151ft 0kts
12-Nov-21 21:16 34.942817 -119.690798 83 2151ft 0kts
12-Nov-21 21:17 34.942817 -119.690798 83 2151ft 0kts
12-Nov-21 21:18 34.942817 -119.690798 83 2151ft 0kts
12-Nov-21 21:19 34.942817 -119.690798 83 2151ft 0kts
12-Nov-21 21:20 34.942817 -119.690798 83 2151ft 0kts
12-Nov-21 21:21 34.942817 -119.690798 83 2151ft 0kts
12-Nov-21 21:22 34.942817 -119.690798 83 2151ft 0kts
12-Nov-21 21:24 34.942817 -119.690798 83 2151ft 0kts
12-Nov-21 21:25 34.942817 -119.690798 83 2151ft 0kts

Navigation Log

Ident Type
Flight plan parsing failed, navigation log unavailable